Time;durP1;ratioP1;P1;durP2;ratioP2;P2;SDS_P1;SDS_P2;PMS_P1;PMS_P2;Temp;Humidity;BMP_temperature;BMP_pressure;BME280_temperature;BME280_humidity;BME280_pressure;Samples;Min_cycle;Max_cycle;Signal;HPM_P1;HPM_P2
2023/10/28 00:01:26;;;;;;;4.35;2.83;;;23.90;61.10;;;;;;6196153;28;81889;-68
2023/10/28 00:04:27;;;;;;;4.57;2.92;;;24.00;61.20;;;;;;6215898;28;81018;-68
2023/10/28 00:07:27;;;;;;;3.75;2.65;;;24.00;61.10;;;;;;6229123;27;80685;-68
2023/10/28 00:10:29;;;;;;;3.67;2.63;;;24.00;61.20;;;;;;6177749;28;80476;-72
2023/10/28 00:13:30;;;;;;;3.53;2.63;;;24.00;61.10;;;;;;6174919;28;80392;-72
2023/10/28 00:16:30;;;;;;;3.70;2.45;;;24.00;61.00;;;;;;6158393;28;81168;-72
2023/10/28 00:19:31;;;;;;;4.50;2.35;;;24.00;61.00;;;;;;6156719;28;81450;-72
2023/10/28 00:22:31;;;;;;;4.30;2.58;;;24.00;61.10;;;;;;6192534;28;83427;-71
2023/10/28 00:25:32;;;;;;;4.10;2.50;;;24.00;61.20;;;;;;6190219;28;80816;-68
2023/10/28 00:28:33;;;;;;;3.25;2.17;;;24.00;61.30;;;;;;6187685;28;80615;-67
2023/10/28 00:31:33;;;;;;;5.95;2.58;;;24.00;61.10;;;;;;6183072;28;80938;-67
2023/10/28 00:34:34;;;;;;;3.67;2.50;;;24.00;60.80;;;;;;6193093;28;82837;-67
2023/10/28 00:37:34;;;;;;;4.80;2.70;;;24.00;60.90;;;;;;6213428;28;82978;-68
2023/10/28 00:40:35;;;;;;;3.53;2.33;;;24.00;60.90;;;;;;6220005;28;81334;-70
2023/10/28 00:43:35;;;;;;;5.25;2.40;;;24.00;60.80;;;;;;6222162;27;80796;-71
2023/10/28 00:46:36;;;;;;;5.03;2.78;;;24.00;60.80;;;;;;6221808;27;80402;-62
2023/10/28 00:49:36;;;;;;;3.17;2.08;;;24.00;61.00;;;;;;6215184;27;81054;-62
2023/10/28 00:52:37;;;;;;;3.05;2.05;;;24.00;61.00;;;;;;6212415;28;80766;-62
2023/10/28 00:55:37;;;;;;;3.55;2.15;;;24.00;60.90;;;;;;6213171;27;80484;-60
2023/10/28 00:58:38;;;;;;;2.97;2.15;;;24.00;61.10;;;;;;6175171;28;80354;-61
2023/10/28 01:01:38;;;;;;;2.70;1.80;;;24.00;61.00;;;;;;6175955;28;81268;-61
2023/10/28 01:04:39;;;;;;;3.15;1.70;;;24.00;61.00;;;;;;6178516;28;80620;-67
2023/10/28 01:07:39;;;;;;;3.53;2.10;;;23.90;60.90;;;;;;6176744;28;81418;-67
2023/10/28 01:10:41;;;;;;;3.28;2.00;;;24.00;61.00;;;;;;6174087;28;81446;-68
2023/10/28 01:13:44;;;;;;;3.83;2.50;;;24.00;60.90;;;;;;6172606;28;80731;-67
2023/10/28 01:16:45;;;;;;;5.63;2.20;;;24.00;61.00;;;;;;6193472;28;80718;-67
2023/10/28 01:19:48;;;;;;;3.10;1.92;;;24.00;61.00;;;;;;6170503;28;81518;-70
2023/10/28 01:22:48;;;;;;;3.10;1.63;;;24.00;60.80;;;;;;6166897;28;80827;-70
2023/10/28 01:25:49;;;;;;;5.57;1.92;;;24.00;60.80;;;;;;6174019;28;81582;-69
2023/10/28 01:28:50;;;;;;;3.90;1.88;;;24.00;60.70;;;;;;6174159;28;83278;-68
2023/10/28 01:31:50;;;;;;;2.72;1.73;;;24.00;60.70;;;;;;6164359;28;83562;-68
2023/10/28 01:34:51;;;;;;;2.47;1.70;;;24.00;60.70;;;;;;6154575;28;80962;-69
2023/10/28 01:37:51;;;;;;;2.90;1.60;;;24.00;60.80;;;;;;6153268;28;80318;-69
2023/10/28 01:40:52;;;;;;;2.35;1.50;;;24.00;60.70;;;;;;6189067;28;83428;-67
2023/10/28 01:43:52;;;;;;;2.65;1.83;;;23.90;60.70;;;;;;6177010;28;80521;-71
2023/10/28 01:46:53;;;;;;;2.60;1.75;;;23.90;60.70;;;;;;6175820;28;83045;-71
2023/10/28 01:49:53;;;;;;;3.97;1.60;;;24.00;60.90;;;;;;6175714;28;80543;-69
2023/10/28 01:52:54;;;;;;;2.13;1.58;;;23.90;60.70;;;;;;6177808;28;81365;-70
2023/10/28 01:55:54;;;;;;;2.25;1.50;;;24.00;60.80;;;;;;6191721;28;83452;-69
2023/10/28 01:58:55;;;;;;;3.40;1.65;;;24.00;60.70;;;;;;6175339;28;83089;-63
2023/10/28 02:01:56;;;;;;;2.58;1.80;;;23.90;60.60;;;;;;6167755;28;83497;-63
2023/10/28 02:04:57;;;;;;;2.30;1.42;;;23.90;60.50;;;;;;6151304;28;81457;-62
2023/10/28 02:07:59;;;;;;;2.90;1.40;;;23.90;60.70;;;;;;6154991;28;81265;-64
2023/10/28 02:11:01;;;;;;;3.13;1.95;;;23.90;60.60;;;;;;6171449;28;80051;-64
2023/10/28 02:14:02;;;;;;;2.10;1.42;;;23.80;60.70;;;;;;6163093;28;84523;-63
2023/10/28 02:17:02;;;;;;;2.53;1.70;;;23.80;60.80;;;;;;6174568;28;82142;-62
2023/10/28 02:20:04;;;;;;;2.05;1.42;;;23.90;60.60;;;;;;6175050;28;82894;-69
2023/10/28 02:23:04;;;;;;;2.90;1.70;;;23.90;60.60;;;;;;6193658;28;83251;-69
2023/10/28 02:26:05;;;;;;;1.85;1.10;;;23.90;60.60;;;;;;6201486;28;83403;-69
2023/10/28 02:29:06;;;;;;;1.73;1.23;;;23.90;60.50;;;;;;6197817;28;82504;-67
2023/10/28 02:32:07;;;;;;;2.28;1.25;;;23.90;60.40;;;;;;6190743;28;80652;-69
2023/10/28 02:35:07;;;;;;;2.28;1.58;;;23.90;60.30;;;;;;6213662;27;80595;-69
2023/10/28 02:38:08;;;;;;;2.90;1.33;;;23.90;60.40;;;;;;6161083;28;80451;-70
2023/10/28 02:41:08;;;;;;;2.75;1.35;;;23.90;60.40;;;;;;6166701;28;82609;-73
2023/10/28 02:44:09;;;;;;;2.28;1.52;;;24.00;60.30;;;;;;6182664;28;80857;-73
2023/10/28 02:47:09;;;;;;;1.70;1.25;;;24.00;60.40;;;;;;6172985;28;82153;-71
2023/10/28 02:50:10;;;;;;;1.77;1.20;;;24.00;60.30;;;;;;6196548;28;80766;-71
2023/10/28 02:53:11;;;;;;;1.33;1.15;;;24.00;60.30;;;;;;6211876;28;82319;-71
2023/10/28 02:56:11;;;;;;;1.60;1.27;;;24.00;60.20;;;;;;6205453;28;81568;-69
2023/10/28 02:59:12;;;;;;;2.28;1.23;;;24.00;60.40;;;;;;6176763;28;80424;-70
2023/10/28 03:02:12;;;;;;;3.67;1.08;;;23.90;60.40;;;;;;6183462;28;80377;-71
2023/10/28 03:05:13;;;;;;;2.92;1.17;;;24.00;60.30;;;;;;6180427;28;83171;-69
2023/10/28 03:08:13;;;;;;;1.50;1.10;;;24.00;60.40;;;;;;6202382;28;85815;-67
2023/10/28 03:11:14;;;;;;;2.28;1.27;;;24.00;60.30;;;;;;6211837;28;80703;-67
2023/10/28 03:14:15;;;;;;;1.63;1.33;;;24.00;60.30;;;;;;6223026;28;81923;-68
2023/10/28 03:17:17;;;;;;;0.98;0.95;;;24.00;60.30;;;;;;6225826;28;81319;-70
2023/10/28 03:20:19;;;;;;;1.90;0.95;;;24.00;60.30;;;;;;6223625;27;80371;-73
2023/10/28 03:23:19;;;;;;;1.60;1.30;;;24.00;60.40;;;;;;6210819;28;81158;-69
2023/10/28 03:26:20;;;;;;;0.88;0.80;;;24.00;60.20;;;;;;6205557;28;81976;-68
2023/10/28 03:29:21;;;;;;;1.20;0.93;;;23.90;60.10;;;;;;6216487;28;80444;-68
2023/10/28 03:32:21;;;;;;;1.10;1.00;;;23.90;60.90;;;;;;6211135;27;81071;-69
2023/10/28 03:35:22;;;;;;;1.65;1.15;;;23.90;60.30;;;;;;6224297;28;80330;-64
2023/10/28 03:38:22;;;;;;;2.13;1.48;;;24.00;60.10;;;;;;6199018;28;80849;-70
2023/10/28 03:41:23;;;;;;;2.10;1.20;;;23.90;60.10;;;;;;6200065;28;80787;-67
2023/10/28 03:44:23;;;;;;;1.40;1.00;;;24.00;60.20;;;;;;6194768;28;80902;-72
2023/10/28 03:47:24;;;;;;;1.73;1.20;;;23.90;59.80;;;;;;6214948;27;84407;-70
2023/10/28 03:50:25;;;;;;;1.00;0.90;;;23.90;60.00;;;;;;6219007;27;80391;-68
2023/10/28 03:53:25;;;;;;;2.35;1.10;;;24.00;60.20;;;;;;6194446;28;80960;-68
2023/10/28 03:56:26;;;;;;;0.90;0.70;;;23.90;59.90;;;;;;6155973;28;81409;-69
2023/10/28 03:59:27;;;;;;;2.33;1.55;;;23.90;59.80;;;;;;6167761;28;80524;-68
2023/10/28 04:02:28;;;;;;;2.05;1.00;;;24.00;59.80;;;;;;6184627;28;80600;-69
2023/10/28 04:05:29;;;;;;;2.33;1.10;;;24.00;59.70;;;;;;6155644;28;81233;-69
2023/10/28 04:08:29;;;;;;;2.00;1.08;;;24.00;59.70;;;;;;6184457;28;82471;-69
2023/10/28 04:11:30;;;;;;;1.95;1.10;;;24.00;59.60;;;;;;6184158;28;81981;-67
2023/10/28 04:14:30;;;;;;;2.08;0.98;;;24.00;59.50;;;;;;6197520;28;82558;-66
2023/10/28 04:17:31;;;;;;;1.70;1.35;;;24.00;59.80;;;;;;6159285;28;80804;-67
2023/10/28 04:20:33;;;;;;;1.98;0.90;;;24.00;59.50;;;;;;6176532;28;80674;-65
2023/10/28 04:23:33;;;;;;;3.03;1.23;;;24.00;59.60;;;;;;6173469;28;81118;-66
2023/10/28 04:26:34;;;;;;;1.95;0.90;;;24.00;59.30;;;;;;6176377;28;81099;-65
2023/10/28 04:29:34;;;;;;;0.70;0.70;;;24.10;59.50;;;;;;6160815;28;81577;-65
2023/10/28 04:32:35;;;;;;;0.70;0.70;;;24.10;59.30;;;;;;6186458;28;81563;-66
2023/10/28 04:35:36;;;;;;;1.17;0.70;;;24.10;59.30;;;;;;6158243;28;80465;-67
2023/10/28 04:38:40;;;;;;;1.52;0.88;;;24.10;59.40;;;;;;6183774;28;80678;-67
2023/10/28 04:41:40;;;;;;;1.25;0.82;;;24.10;59.30;;;;;;6157661;28;81503;-68
2023/10/28 04:44:43;;;;;;;1.30;1.08;;;24.10;59.30;;;;;;6176505;28;81332;-70
2023/10/28 04:47:43;;;;;;;3.63;1.00;;;24.10;59.20;;;;;;6157527;28;80931;-70
2023/10/28 04:50:44;;;;;;;1.38;0.88;;;24.20;59.10;;;;;;6189271;28;81023;-71
2023/10/28 04:53:45;;;;;;;2.45;1.10;;;24.20;59.20;;;;;;6197041;28;81037;-71
2023/10/28 04:56:45;;;;;;;0.80;0.70;;;24.20;58.90;;;;;;6220572;28;81665;-71
2023/10/28 04:59:46;;;;;;;1.73;1.10;;;24.10;59.00;;;;;;6166928;28;80362;-69
2023/10/28 05:02:46;;;;;;;1.30;0.80;;;24.20;59.00;;;;;;6179399;28;80190;-70
2023/10/28 05:05:47;;;;;;;1.05;0.82;;;24.20;58.90;;;;;;6197837;28;82028;-67
2023/10/28 05:08:48;;;;;;;2.67;0.95;;;24.20;58.90;;;;;;6201247;28;80769;-68
2023/10/28 05:11:48;;;;;;;3.72;1.10;;;24.20;58.80;;;;;;6222695;28;80605;-64
2023/10/28 05:14:49;;;;;;;2.00;0.70;;;24.20;58.90;;;;;;6225468;27;80583;-68
2023/10/28 05:17:50;;;;;;;3.55;0.80;;;24.20;58.70;;;;;;6222454;27;82705;-67
2023/10/28 05:20:53;;;;;;;0.82;0.77;;;24.20;58.70;;;;;;6211949;28;82743;-68
2023/10/28 05:23:54;;;;;;;2.80;1.13;;;24.20;58.80;;;;;;6207156;27;80305;-69
2023/10/28 05:26:54;;;;;;;4.63;1.33;;;24.20;59.00;;;;;;6153034;28;83357;-71
2023/10/28 05:29:55;;;;;;;1.80;0.82;;;24.20;59.50;;;;;;6194090;28;80644;-71
2023/10/28 05:32:55;;;;;;;2.47;1.27;;;24.10;59.00;;;;;;6166044;28;81173;-74
2023/10/28 05:35:56;;;;;;;2.35;1.15;;;24.20;59.10;;;;;;6209051;28;80864;-74
2023/10/28 05:38:59;;;;;;;2.22;0.95;;;24.10;59.10;;;;;;6173490;28;80788;-74
2023/10/28 05:41:59;;;;;;;4.63;1.05;;;24.20;59.20;;;;;;6195540;28;80338;-68
2023/10/28 05:45:00;;;;;;;5.70;1.42;;;24.20;59.40;;;;;;6177997;28;84916;-66
2023/10/28 05:48:00;;;;;;;1.33;0.75;;;24.10;60.00;;;;;;6167940;28;80359;-67
2023/10/28 05:51:02;;;;;;;2.55;0.93;;;24.10;59.90;;;;;;6178640;28;80500;-70
2023/10/28 05:54:03;;;;;;;2.67;1.20;;;24.20;60.00;;;;;;6168763;28;80935;-68
2023/10/28 05:57:03;;;;;;;1.50;1.20;;;24.20;60.20;;;;;;6144663;28;81114;-67
2023/10/28 06:00:06;;;;;;;2.22;0.88;;;24.10;59.60;;;;;;6159997;28;81177;-73
2023/10/28 06:03:09;;;;;;;1.27;0.80;;;24.10;59.70;;;;;;6154633;28;82787;-73
2023/10/28 06:06:10;;;;;;;6.43;0.88;;;24.10;60.00;;;;;;6164565;28;80804;-70
2023/10/28 06:09:10;;;;;;;0.77;0.63;;;24.10;59.80;;;;;;6176931;28;81354;-70
2023/10/28 06:12:13;;;;;;;2.28;0.90;;;24.10;59.60;;;;;;6170464;28;80466;-71
2023/10/28 06:15:14;;;;;;;4.28;0.90;;;24.20;59.90;;;;;;6168846;28;80929;-77
2023/10/28 06:18:14;;;;;;;3.75;1.30;;;24.20;60.10;;;;;;6176296;28;80615;-66
2023/10/28 06:21:15;;;;;;;1.30;0.90;;;24.10;59.80;;;;;;6181444;27;84401;-66
2023/10/28 06:24:15;;;;;;;2.80;1.10;;;24.10;59.50;;;;;;6175983;28;80487;-71
2023/10/28 06:27:16;;;;;;;6.28;1.27;;;24.10;59.70;;;;;;6175471;28;80324;-67
2023/10/28 06:30:16;;;;;;;4.07;0.95;;;24.20;59.50;;;;;;6174108;28;80366;-65
2023/10/28 06:33:17;;;;;;;8.88;2.08;;;24.20;59.10;;;;;;6174200;28;80269;-64
2023/10/28 06:36:18;;;;;;;4.55;1.40;;;24.30;59.10;;;;;;6165000;28;80401;-67
2023/10/28 06:39:19;;;;;;;3.95;0.90;;;24.30;59.00;;;;;;6173157;28;83176;-69
2023/10/28 06:42:19;;;;;;;3.83;1.50;;;24.30;58.90;;;;;;6172014;28;80911;-69
2023/10/28 06:45:20;;;;;;;3.80;1.23;;;24.30;58.90;;;;;;6176297;28;81114;-70
2023/10/28 06:48:20;;;;;;;5.30;1.20;;;24.30;58.50;;;;;;6168486;28;80335;-68
2023/10/28 06:51:21;;;;;;;4.40;1.30;;;24.30;58.30;;;;;;6166476;28;80989;-70
2023/10/28 06:54:22;;;;;;;3.90;1.45;;;24.30;58.20;;;;;;6172198;28;83450;-69
2023/10/28 06:57:22;;;;;;;3.28;1.80;;;24.30;58.20;;;;;;6174221;28;80448;-66
2023/10/28 07:00:28;;;;;;;4.65;1.50;;;24.40;58.10;;;;;;6175249;28;79985;-66
2023/10/28 07:03:29;;;;;;;3.72;1.23;;;24.30;55.80;;;;;;6178432;28;80915;-67
2023/10/28 07:06:31;;;;;;;3.78;2.20;;;24.30;55.60;;;;;;6177387;28;80714;-69
2023/10/28 07:09:31;;;;;;;6.63;1.73;;;24.20;55.20;;;;;;6165820;28;80252;-65
2023/10/28 07:12:32;;;;;;;3.83;1.23;;;24.10;54.80;;;;;;6166481;28;80819;-74
2023/10/28 07:15:32;;;;;;;3.35;1.02;;;24.10;54.90;;;;;;6167273;28;80520;-73
2023/10/28 07:18:34;;;;;;;2.15;1.20;;;24.10;54.40;;;;;;6171700;28;80460;-74
2023/10/28 07:21:34;;;;;;;2.15;1.15;;;24.10;54.60;;;;;;6171379;28;80122;-75
2023/10/28 07:24:35;;;;;;;4.93;1.75;;;24.20;55.00;;;;;;6151931;28;80796;-72
2023/10/28 07:27:36;;;;;;;2.05;1.42;;;24.20;54.80;;;;;;6166500;28;81154;-75
2023/10/28 07:30:36;;;;;;;2.13;1.45;;;24.20;54.50;;;;;;6168657;28;84332;-71
2023/10/28 07:33:37;;;;;;;2.67;1.50;;;24.20;54.20;;;;;;6164404;28;83509;-68
2023/10/28 07:36:37;;;;;;;1.52;1.20;;;24.20;53.60;;;;;;6167708;28;81066;-68
2023/10/28 07:39:38;;;;;;;1.90;1.25;;;24.20;53.20;;;;;;6166309;28;80689;-67
2023/10/28 07:42:40;;;;;;;2.38;1.33;;;24.10;52.90;;;;;;6173139;28;82305;-65
2023/10/28 07:45:40;;;;;;;2.38;1.30;;;24.10;53.50;;;;;;6165543;28;82575;-69
2023/10/28 07:48:41;;;;;;;2.40;1.20;;;24.00;52.80;;;;;;6164554;28;83615;-72
2023/10/28 07:51:41;;;;;;;1.60;1.10;;;23.70;53.50;;;;;;6175529;28;80822;-68
2023/10/28 07:54:42;;;;;;;3.17;1.00;;;23.80;53.30;;;;;;6171482;28;80467;-71
2023/10/28 07:57:43;;;;;;;12.02;1.85;;;23.70;53.10;;;;;;6175537;28;81763;-69
2023/10/28 08:00:46;;;;;;;3.28;1.30;;;23.80;53.30;;;;;;6159753;28;80348;-66
2023/10/28 08:03:46;;;;;;;2.30;0.98;;;23.90;53.40;;;;;;6176032;28;80325;-69
2023/10/28 08:06:47;;;;;;;8.85;1.30;;;23.80;53.00;;;;;;6170154;28;80542;-66
2023/10/28 08:09:47;;;;;;;8.05;1.10;;;23.80;52.90;;;;;;6172549;28;81003;-72
2023/10/28 08:12:48;;;;;;;3.50;0.80;;;23.60;52.70;;;;;;6162558;28;81441;-66
2023/10/28 08:15:52;;;;;;;10.20;2.17;;;23.50;53.40;;;;;;6176410;28;80746;-68
2023/10/28 08:18:53;;;;;;;1.95;1.30;;;23.70;52.70;;;;;;6177240;28;83858;-65
2023/10/28 08:21:54;;;;;;;1.70;1.05;;;23.70;52.50;;;;;;6168478;28;80650;-64
2023/10/28 08:24:54;;;;;;;2.03;0.95;;;23.80;52.40;;;;;;6178105;28;81013;-67
2023/10/28 08:27:55;;;;;;;3.47;1.00;;;24.00;52.20;;;;;;6177383;28;80644;-67
2023/10/28 08:30:55;;;;;;;1.10;0.90;;;23.90;52.20;;;;;;6176781;28;80543;-69
2023/10/28 08:33:56;;;;;;;1.52;1.17;;;23.70;51.70;;;;;;6175625;28;82841;-66
2023/10/28 08:36:56;;;;;;;2.03;0.75;;;23.50;52.20;;;;;;6176971;28;80172;-70
2023/10/28 08:39:57;;;;;;;1.58;0.90;;;23.50;52.20;;;;;;6169371;28;80342;-69
2023/10/28 08:42:58;;;;;;;3.25;0.90;;;23.50;52.00;;;;;;6165997;28;80288;-69
2023/10/28 08:46:00;;;;;;;2.33;1.00;;;23.50;52.40;;;;;;6170894;28;80932;-68
2023/10/28 08:49:00;;;;;;;2.40;1.10;;;23.60;52.10;;;;;;6176396;28;81735;-66
2023/10/28 08:52:02;;;;;;;3.90;1.08;;;23.40;52.20;;;;;;6177162;28;80371;-66
2023/10/28 08:55:03;;;;;;;3.55;0.90;;;23.20;52.10;;;;;;6176617;28;80252;-64
2023/10/28 08:58:04;;;;;;;2.42;1.05;;;23.30;52.40;;;;;;6175433;28;81286;-69
2023/10/28 09:01:04;;;;;;;5.00;1.20;;;23.40;52.40;;;;;;6184981;28;89061;-64
2023/10/28 09:04:06;;;;;;;2.65;1.30;;;23.40;52.40;;;;;;6202930;28;80925;-65
2023/10/28 09:07:07;;;;;;;3.00;1.17;;;23.40;52.50;;;;;;6203710;28;81028;-68
2023/10/28 09:10:07;;;;;;;3.42;1.10;;;23.40;52.30;;;;;;6203501;28;80317;-62
2023/10/28 09:13:08;;;;;;;2.80;1.02;;;23.50;52.40;;;;;;6195604;28;83753;-69
2023/10/28 09:16:09;;;;;;;1.80;1.15;;;23.50;52.20;;;;;;6191554;28;82875;-68
2023/10/28 09:19:09;;;;;;;2.00;1.10;;;23.50;51.90;;;;;;6200744;28;80297;-71
2023/10/28 09:22:09;;;;;;;1.80;1.17;;;23.40;52.10;;;;;;6201884;28;81355;-74
2023/10/28 09:25:10;;;;;;;6.10;1.70;;;23.50;51.70;;;;;;6212631;27;81712;-71
2023/10/28 09:28:11;;;;;;;1.30;0.90;;;23.30;51.40;;;;;;6223554;27;80716;-74
2023/10/28 09:31:11;;;;;;;2.42;0.90;;;23.20;51.80;;;;;;6197698;28;81084;-68
2023/10/28 09:34:12;;;;;;;4.40;1.17;;;23.20;51.60;;;;;;6173611;28;82938;-69
2023/10/28 09:37:12;;;;;;;3.33;1.52;;;23.30;52.20;;;;;;6180299;28;80530;-74
2023/10/28 09:40:14;;;;;;;2.85;1.00;;;23.20;51.30;;;;;;6174297;28;80474;-68
2023/10/28 09:43:14;;;;;;;2.55;0.90;;;23.30;51.80;;;;;;6191900;28;87750;-66
2023/10/28 09:46:15;;;;;;;3.70;1.10;;;23.30;51.70;;;;;;6201876;28;80515;-60
2023/10/28 09:49:16;;;;;;;3.10;1.30;;;23.40;52.10;;;;;;6202882;28;80924;-61
2023/10/28 09:52:17;;;;;;;3.05;1.33;;;23.40;52.10;;;;;;6202224;28;81218;-61
2023/10/28 09:55:17;;;;;;;2.60;1.17;;;23.40;51.90;;;;;;6202671;28;80800;-62
2023/10/28 09:58:18;;;;;;;6.32;1.40;;;23.30;52.40;;;;;;6202109;28;80321;-65
2023/10/28 10:01:19;;;;;;;2.72;0.90;;;23.20;52.20;;;;;;6191247;28;80355;-60
2023/10/28 10:04:19;;;;;;;10.45;1.45;;;23.30;52.00;;;;;;6203549;28;80480;-65
2023/10/28 10:07:21;;;;;;;3.08;1.20;;;23.40;52.80;;;;;;6181836;28;82046;-63
2023/10/28 10:10:21;;;;;;;2.42;1.10;;;23.30;52.50;;;;;;6199152;28;81432;-63
2023/10/28 10:13:22;;;;;;;3.20;1.50;;;23.30;52.00;;;;;;6197979;28;80897;-63
2023/10/28 10:16:22;;;;;;;3.30;0.93;;;23.20;52.20;;;;;;6198670;28;83961;-63
2023/10/28 10:19:24;;;;;;;1.60;0.98;;;23.20;52.50;;;;;;6196899;28;82408;-64
2023/10/28 10:22:26;;;;;;;5.25;1.25;;;23.30;51.90;;;;;;6172880;28;85907;-66
2023/10/28 10:25:27;;;;;;;4.25;0.93;;;23.30;52.00;;;;;;6199275;28;81626;-64
2023/10/28 10:28:27;;;;;;;3.03;0.88;;;23.40;51.70;;;;;;6188361;28;80498;-62
2023/10/28 10:31:28;;;;;;;2.95;1.30;;;23.50;52.70;;;;;;6191723;28;82745;-65
2023/10/28 10:34:28;;;;;;;2.30;1.00;;;23.40;52.00;;;;;;6196264;28;82482;-63
2023/10/28 10:37:31;;;;;;;3.00;1.10;;;23.30;51.70;;;;;;6198653;28;81018;-62
2023/10/28 10:40:32;;;;;;;2.60;1.30;;;23.00;52.00;;;;;;6195243;28;80979;-60
2023/10/28 10:43:32;;;;;;;3.75;1.30;;;22.70;52.50;;;;;;6194751;28;80506;-63
2023/10/28 10:46:33;;;;;;;2.30;0.95;;;23.00;55.20;;;;;;6194159;28;81025;-67
2023/10/28 10:49:33;;;;;;;2.95;1.10;;;23.00;54.10;;;;;;6175202;28;80409;-63
2023/10/28 10:52:34;;;;;;;5.90;1.40;;;23.10;55.50;;;;;;6177548;28;80406;-62
2023/10/28 10:55:35;;;;;;;2.85;1.00;;;23.30;55.40;;;;;;6176983;28;81698;-63
2023/10/28 10:58:35;;;;;;;2.67;1.00;;;23.10;53.90;;;;;;6153238;28;80996;-59
2023/10/28 11:01:35;;;;;;;3.53;1.13;;;23.20;54.60;;;;;;6151990;28;81815;-60
2023/10/28 11:04:36;;;;;;;2.40;1.02;;;23.00;52.70;;;;;;6175013;28;81393;-61
2023/10/28 11:07:37;;;;;;;3.08;1.05;;;23.30;54.20;;;;;;6196008;28;80409;-59
2023/10/28 11:10:37;;;;;;;2.00;0.90;;;23.30;53.10;;;;;;6194960;28;80473;-67
2023/10/28 11:13:38;;;;;;;2.25;1.13;;;23.30;52.50;;;;;;6210455;28;82404;-65
2023/10/28 11:16:39;;;;;;;2.50;1.10;;;23.10;52.90;;;;;;6220100;28;80785;-66
2023/10/28 11:19:40;;;;;;;2.90;1.30;;;23.10;52.80;;;;;;6208418;27;81597;-66
2023/10/28 11:22:40;;;;;;;2.33;0.90;;;23.10;54.30;;;;;;6210247;28;81149;-64
2023/10/28 11:25:42;;;;;;;4.43;1.10;;;23.20;52.50;;;;;;6185713;28;81265;-65
2023/10/28 11:28:42;;;;;;;2.38;1.08;;;22.70;52.40;;;;;;6188531;28;81264;-60
2023/10/28 11:31:43;;;;;;;5.63;0.80;;;22.30;53.30;;;;;;6170649;28;82057;-60
2023/10/28 11:34:44;;;;;;;9.32;1.20;;;22.30;53.40;;;;;;6179116;28;81134;-60
2023/10/28 11:37:45;;;;;;;2.38;1.00;;;22.20;54.00;;;;;;6199385;28;80808;-59
2023/10/28 11:40:45;;;;;;;2.17;0.90;;;22.30;54.40;;;;;;6188859;28;81731;-60
2023/10/28 11:43:46;;;;;;;1.25;0.80;;;22.30;54.40;;;;;;6151808;28;81252;-60
2023/10/28 11:46:46;;;;;;;4.18;0.98;;;22.40;55.00;;;;;;6161331;28;81171;-60
2023/10/28 11:49:47;;;;;;;1.35;0.90;;;22.50;55.80;;;;;;6155486;28;81141;-71
2023/10/28 11:52:49;;;;;;;4.75;1.00;;;22.30;53.80;;;;;;6151737;28;81406;-65
2023/10/28 11:55:49;;;;;;;3.05;1.20;;;22.40;54.90;;;;;;6172668;28;83555;-75
2023/10/28 11:58:50;;;;;;;1.67;0.90;;;22.60;55.40;;;;;;6167333;28;80912;-74
2023/10/28 12:01:52;;;;;;;1.95;0.90;;;22.80;55.00;;;;;;6153326;28;80635;-74
2023/10/28 12:04:53;;;;;;;9.77;1.98;;;22.70;55.30;;;;;;6172821;28;82566;-75
2023/10/28 12:07:53;;;;;;;20.80;5.70;;;22.80;56.00;;;;;;6163657;28;81115;-73
2023/10/28 12:10:54;;;;;;;20.83;5.70;;;22.80;56.20;;;;;;6202165;28;83039;-71
2023/10/28 12:13:56;;;;;;;26.55;6.82;;;22.60;56.00;;;;;;6171784;28;80908;-70
2023/10/28 12:16:56;;;;;;;24.02;8.45;;;22.70;56.20;;;;;;6202978;28;81068;-67
2023/10/28 12:19:57;;;;;;;19.90;6.28;;;22.80;56.50;;;;;;6192045;28;82263;-72
2023/10/28 12:22:58;;;;;;;26.00;6.65;;;22.80;57.00;;;;;;6174622;28;80681;-70
2023/10/28 12:25:58;;;;;;;35.60;10.05;;;22.80;57.70;;;;;;6177379;28;80607;-60
2023/10/28 12:28:59;;;;;;;42.30;8.90;;;22.90;58.50;;;;;;6189014;28;83549;-60
2023/10/28 12:31:59;;;;;;;39.40;9.68;;;23.00;58.50;;;;;;6203652;28;82857;-60
2023/10/28 12:35:00;;;;;;;51.22;13.15;;;23.00;58.90;;;;;;6188399;28;81616;-61
2023/10/28 12:38:00;;;;;;;39.85;10.82;;;23.10;58.80;;;;;;6195617;28;84011;-62
2023/10/28 12:41:00;;;;;;;23.38;8.10;;;23.00;57.10;;;;;;6185093;28;83668;-64
2023/10/28 12:44:01;;;;;;;15.57;4.50;;;23.00;56.70;;;;;;6196678;28;83386;-60
2023/10/28 12:47:02;;;;;;;11.52;3.55;;;22.70;55.80;;;;;;6186273;28;81204;-62
2023/10/28 12:50:03;;;;;;;8.82;2.40;;;22.60;56.00;;;;;;6175720;28;80695;-62
2023/10/28 12:53:03;;;;;;;3.88;1.85;;;22.40;55.70;;;;;;6164097;28;80589;-61
2023/10/28 12:56:04;;;;;;;3.08;1.60;;;22.30;54.90;;;;;;6189536;28;80757;-60
2023/10/28 12:59:04;;;;;;;3.40;1.70;;;22.20;55.60;;;;;;6187232;28;80428;-62
2023/10/28 13:02:05;;;;;;;8.68;1.30;;;22.30;56.00;;;;;;6204829;28;85239;-74
2023/10/28 13:05:05;;;;;;;4.53;1.65;;;22.20;55.50;;;;;;6206186;27;80508;-69
2023/10/28 13:08:06;;;;;;;1.58;1.20;;;22.30;55.80;;;;;;6180843;28;80498;-73
2023/10/28 13:11:07;;;;;;;3.90;1.40;;;22.30;55.70;;;;;;6185429;28;80904;-69
2023/10/28 13:14:08;;;;;;;4.78;1.35;;;22.30;56.10;;;;;;6192485;28;80754;-70
2023/10/28 13:17:09;;;;;;;3.10;1.45;;;22.40;55.80;;;;;;6184779;28;80463;-70
2023/10/28 13:20:10;;;;;;;6.18;1.70;;;22.50;55.90;;;;;;6168095;28;80565;-67
2023/10/28 13:23:12;;;;;;;6.90;1.33;;;22.60;57.00;;;;;;6171823;28;80808;-71
2023/10/28 13:26:12;;;;;;;8.10;1.70;;;22.60;56.90;;;;;;6193589;28;80733;-69
2023/10/28 13:29:13;;;;;;;4.78;1.58;;;22.70;57.10;;;;;;6188495;28;81025;-73
2023/10/28 13:32:13;;;;;;;6.43;1.38;;;22.80;57.10;;;;;;6174065;28;81755;-75
2023/10/28 13:35:14;;;;;;;5.15;1.10;;;22.90;57.00;;;;;;6193780;28;82400;-69
2023/10/28 13:38:16;;;;;;;2.13;1.20;;;22.90;58.10;;;;;;6189700;28;81233;-65
2023/10/28 13:41:17;;;;;;;3.88;1.63;;;23.00;57.40;;;;;;6211670;28;84014;-65
2023/10/28 13:44:17;;;;;;;3.03;1.40;;;23.00;58.70;;;;;;6206132;28;81108;-64
2023/10/28 13:47:18;;;;;;;3.55;1.40;;;23.00;57.80;;;;;;6204951;28;80215;-66
2023/10/28 13:50:18;;;;;;;4.05;1.52;;;23.00;58.10;;;;;;6214369;27;80800;-68
2023/10/28 13:53:19;;;;;;;4.68;1.88;;;23.00;59.00;;;;;;6179747;28;81374;-66
2023/10/28 13:56:20;;;;;;;3.28;1.88;;;23.00;57.80;;;;;;6127512;28;87897;-70
2023/10/28 13:59:21;;;;;;;3.70;1.90;;;23.00;57.70;;;;;;6193329;28;83498;-69
2023/10/28 14:02:21;;;;;;;7.13;2.03;;;23.00;57.40;;;;;;6209468;28;80546;-68
2023/10/28 14:05:22;;;;;;;3.20;1.88;;;22.80;57.30;;;;;;6211432;27;80813;-76
2023/10/28 14:08:24;;;;;;;4.32;1.88;;;22.80;57.70;;;;;;6174913;28;80959;-66
2023/10/28 14:11:26;;;;;;;12.02;2.10;;;22.90;58.60;;;;;;6198619;28;81714;-71
2023/10/28 14:14:27;;;;;;;7.57;1.95;;;22.90;59.00;;;;;;6167340;28;81517;-64
2023/10/28 14:17:27;;;;;;;7.40;1.60;;;23.00;61.70;;;;;;6196828;28;80909;-69
2023/10/28 14:20:28;;;;;;;8.52;1.85;;;23.10;60.10;;;;;;6179073;28;80930;-68
2023/10/28 14:23:29;;;;;;;13.38;2.53;;;23.10;59.60;;;;;;6191459;28;81150;-65
2023/10/28 14:26:29;;;;;;;7.60;2.17;;;23.20;59.90;;;;;;6207983;27;81372;-65
2023/10/28 14:29:30;;;;;;;5.88;2.00;;;23.20;59.90;;;;;;6193560;28;80919;-65
2023/10/28 14:32:31;;;;;;;10.68;1.90;;;23.20;60.70;;;;;;6149776;28;83757;-79
2023/10/28 14:35:31;;;;;;;3.35;1.98;;;23.20;60.70;;;;;;6193574;28;83863;-70
2023/10/28 14:38:33;;;;;;;7.72;2.38;;;23.20;60.50;;;;;;6160401;28;80434;-63
2023/10/28 14:41:35;;;;;;;12.35;2.50;;;23.20;62.90;;;;;;6155753;28;82361;-66
2023/10/28 14:44:35;;;;;;;21.95;2.70;;;23.30;63.00;;;;;;6156080;28;81340;-65
2023/10/28 14:47:36;;;;;;;6.78;2.80;;;23.30;64.10;;;;;;6193897;28;80690;-68
2023/10/28 14:50:38;;;;;;;11.00;2.40;;;23.30;65.10;;;;;;6195710;28;80433;-70
2023/10/28 14:53:38;;;;;;;4.40;2.38;;;23.40;66.10;;;;;;6156040;28;88146;-76
2023/10/28 14:56:39;;;;;;;10.35;2.55;;;23.30;65.40;;;;;;6171853;28;83596;-76
2023/10/28 14:59:39;;;;;;;5.57;2.05;;;23.40;65.40;;;;;;6148352;28;82448;-75
2023/10/28 15:02:40;;;;;;;5.97;2.70;;;23.40;65.60;;;;;;6143461;28;81551;-75
2023/10/28 15:05:43;;;;;;;7.38;2.88;;;23.40;65.50;;;;;;6152245;28;81531;-73
2023/10/28 15:08:46;;;;;;;7.22;2.47;;;23.50;65.80;;;;;;6153353;28;81108;-74
2023/10/28 15:11:46;;;;;;;5.85;2.80;;;23.40;66.20;;;;;;6148633;28;81580;-77
2023/10/28 15:14:47;;;;;;;7.40;2.63;;;23.50;66.40;;;;;;6151616;28;82023;-77
2023/10/28 15:17:49;;;;;;;6.05;2.80;;;23.60;66.00;;;;;;6155620;28;81625;-72
2023/10/28 15:20:50;;;;;;;4.18;2.33;;;23.60;65.50;;;;;;6155278;28;81981;-73
2023/10/28 15:23:52;;;;;;;3.03;2.10;;;23.70;65.50;;;;;;6144041;28;81538;-71
2023/10/28 15:26:52;;;;;;;7.25;2.58;;;23.70;66.20;;;;;;6133456;28;80974;-76
2023/10/28 15:29:53;;;;;;;10.57;2.50;;;23.70;66.10;;;;;;6138271;28;81237;-71
2023/10/28 15:32:53;;;;;;;7.65;2.40;;;23.70;65.40;;;;;;6138962;28;81778;-69
2023/10/28 15:35:54;;;;;;;7.20;2.80;;;23.70;65.20;;;;;;6142981;28;82111;-72
2023/10/28 15:38:54;;;;;;;18.85;2.88;;;23.80;64.80;;;;;;6147272;28;81632;-69